createdAt,value
2022-09-15T00:01:42.978Z,5.60
2022-09-15T00:04:11.231Z,5.60
2022-09-15T00:06:39.380Z,5.40
2022-09-15T00:09:07.522Z,5.70
2022-09-15T00:11:37.640Z,5.40
2022-09-15T00:14:08.182Z,5.20
2022-09-15T00:16:36.582Z,5.70
2022-09-15T00:19:06.454Z,5.90
2022-09-15T00:21:37.779Z,5.60
2022-09-15T00:24:06.462Z,5.30
2022-09-15T00:26:35.218Z,5.00
2022-09-15T00:29:03.421Z,5.70
2022-09-15T00:31:33.455Z,5.20
2022-09-15T00:34:03.084Z,5.40
2022-09-15T00:36:31.713Z,5.40
2022-09-15T00:38:59.781Z,5.60
2022-09-15T00:41:28.223Z,5.30
2022-09-15T00:44:05.616Z,5.70
2022-09-15T00:46:41.249Z,5.90
2022-09-15T00:49:30.949Z,5.40
2022-09-15T00:52:20.274Z,5.30
2022-09-15T00:54:51.067Z,5.10
2022-09-15T00:57:26.141Z,5.40
2022-09-15T00:59:57.048Z,5.40
2022-09-15T01:02:29.616Z,5.20
2022-09-15T01:04:59.115Z,5.70
2022-09-15T01:07:33.440Z,5.80
2022-09-15T01:10:12.393Z,5.20
2022-09-15T01:12:42.277Z,5.10
2022-09-15T01:15:10.886Z,5.60
2022-09-15T01:17:56.988Z,5.70
2022-09-15T01:20:34.419Z,5.50
2022-09-15T01:23:20.478Z,5.80
2022-09-15T01:26:17.808Z,5.50
2022-09-15T01:29:07.442Z,5.10
2022-09-15T01:32:06.165Z,5.70
2022-09-15T01:34:42.092Z,5.80
2022-09-15T01:37:17.991Z,6.00
2022-09-15T01:39:50.509Z,5.60
2022-09-15T01:42:20.152Z,5.40
2022-09-15T01:44:55.137Z,5.70
2022-09-15T01:47:25.591Z,5.60
2022-09-15T01:50:10.772Z,5.90
2022-09-15T01:52:43.234Z,5.60
2022-09-15T01:55:22.945Z,6.00
2022-09-15T01:57:51.384Z,6.10
2022-09-15T02:00:19.397Z,6.30
2022-09-15T02:03:01.899Z,6.40
2022-09-15T02:05:34.073Z,6.00
2022-09-15T02:08:13.211Z,5.90
2022-09-15T02:10:45.275Z,6.10
2022-09-15T02:13:38.352Z,6.70
2022-09-15T02:16:19.913Z,6.30
2022-09-15T02:19:10.968Z,6.00
2022-09-15T02:21:53.505Z,5.70
2022-09-15T02:24:29.291Z,6.20
2022-09-15T02:26:58.408Z,6.10
2022-09-15T02:29:29.413Z,6.10
2022-09-15T02:32:06.873Z,6.20
2022-09-15T02:34:42.947Z,5.90
2022-09-15T02:37:13.120Z,6.50
2022-09-15T02:39:47.050Z,7.10
2022-09-15T02:42:27.682Z,7.50
2022-09-15T02:44:56.485Z,6.80
2022-09-15T02:47:25.531Z,6.10
2022-09-15T02:49:53.999Z,6.20
2022-09-15T02:52:21.966Z,7.10
2022-09-15T02:54:50.621Z,7.20
2022-09-15T02:57:18.679Z,7.40
2022-09-15T03:00:05.739Z,6.30
2022-09-15T03:02:34.599Z,6.00
2022-09-15T03:05:02.662Z,6.90
2022-09-15T03:07:32.260Z,7.40
2022-09-15T03:10:00.332Z,6.60
2022-09-15T03:12:28.477Z,6.20
2022-09-15T03:14:56.546Z,5.90
2022-09-15T03:17:24.558Z,5.90
2022-09-15T03:19:52.647Z,6.20
2022-09-15T03:22:20.695Z,6.20
2022-09-15T03:24:48.714Z,6.30
2022-09-15T03:27:16.737Z,6.00
2022-09-15T03:29:44.965Z,6.00
2022-09-15T03:32:12.877Z,6.00
2022-09-15T03:34:40.914Z,5.80
2022-09-15T03:37:09.020Z,6.60
2022-09-15T03:39:37.599Z,6.20
2022-09-15T03:42:08.058Z,6.40
2022-09-15T03:44:36.061Z,6.80
2022-09-15T03:47:04.284Z,6.50
2022-09-15T03:49:32.224Z,6.00
2022-09-15T03:52:00.214Z,6.90
2022-09-15T03:54:28.190Z,6.80
2022-09-15T03:56:56.310Z,5.90
2022-09-15T03:59:24.359Z,6.20
2022-09-15T04:01:52.595Z,6.30
2022-09-15T04:04:20.614Z,6.30
2022-09-15T04:06:48.620Z,5.80
2022-09-15T04:09:16.605Z,7.30
2022-09-15T04:11:44.683Z,6.10
2022-09-15T04:14:12.983Z,5.90
2022-09-15T04:16:41.140Z,6.20
2022-09-15T04:19:09.506Z,6.00
2022-09-15T04:21:37.621Z,6.20
2022-09-15T04:24:06.108Z,6.10
2022-09-15T04:26:36.360Z,6.80
2022-09-15T04:29:11.564Z,6.80
2022-09-15T04:31:39.790Z,6.40
2022-09-15T04:34:07.899Z,6.40
2022-09-15T04:36:37.374Z,6.90
2022-09-15T04:39:06.708Z,6.40
2022-09-15T04:41:34.862Z,6.80
2022-09-15T04:44:03.077Z,6.70
2022-09-15T04:46:31.329Z,7.10
2022-09-15T04:48:59.398Z,6.20
2022-09-15T04:51:27.559Z,7.30
2022-09-15T04:53:55.851Z,6.80
2022-09-15T04:56:25.911Z,7.00
2022-09-15T04:59:03.816Z,7.00
2022-09-15T05:01:35.621Z,6.90
2022-09-15T05:04:04.844Z,7.70
2022-09-15T05:06:35.124Z,7.10
2022-09-15T05:09:10.049Z,8.10
2022-09-15T05:11:38.985Z,7.20
2022-09-15T05:14:08.399Z,7.10
2022-09-15T05:16:36.630Z,7.20
2022-09-15T05:19:04.913Z,6.50
2022-09-15T05:21:33.208Z,8.70
2022-09-15T05:24:01.634Z,7.60
2022-09-15T05:26:30.613Z,7.20
2022-09-15T05:28:58.680Z,6.90
2022-09-15T05:31:31.195Z,8.20
2022-09-15T05:34:05.582Z,9.30
2022-09-15T05:36:34.067Z,9.10
2022-09-15T05:39:02.259Z,8.60
2022-09-15T05:41:30.970Z,10.80
2022-09-15T05:43:59.448Z,9.90
2022-09-15T05:46:29.206Z,10.70
2022-09-15T05:48:58.949Z,9.40
2022-09-15T05:51:27.838Z,10.10
2022-09-15T05:53:56.258Z,9.60
2022-09-15T05:56:24.267Z,10.10
2022-09-15T05:58:52.536Z,11.00
2022-09-15T06:01:23.824Z,10.60
2022-09-15T06:03:53.510Z,10.40
2022-09-15T06:06:24.059Z,11.20
2022-09-15T06:08:57.939Z,9.00
2022-09-15T06:11:29.101Z,8.90
2022-09-15T06:14:03.137Z,9.50
2022-09-15T06:16:34.700Z,10.80
2022-09-15T06:19:03.640Z,10.80
2022-09-15T06:21:33.427Z,10.10
2022-09-15T06:24:04.693Z,10.20
2022-09-15T06:26:33.722Z,10.20
2022-09-15T06:29:03.942Z,9.80
2022-09-15T06:31:34.217Z,9.90
2022-09-15T06:34:04.058Z,8.80
2022-09-15T06:36:32.941Z,6.50
2022-09-15T06:39:01.036Z,6.40
2022-09-15T06:41:35.353Z,7.30
2022-09-15T06:44:15.103Z,5.70
2022-09-15T06:46:43.337Z,5.60
2022-09-15T06:49:11.401Z,5.90
2022-09-15T06:51:39.516Z,9.00
2022-09-15T06:54:07.547Z,8.90
2022-09-15T06:56:38.076Z,9.10
2022-09-15T06:59:06.737Z,8.50
2022-09-15T07:01:39.252Z,9.10
2022-09-15T07:04:10.913Z,8.40
2022-09-15T07:06:40.217Z,7.90
2022-09-15T07:09:08.492Z,8.20
2022-09-15T07:11:36.575Z,8.20
2022-09-15T07:14:05.080Z,7.00
2022-09-15T07:16:33.615Z,7.40
2022-09-15T07:19:03.853Z,7.20
2022-09-15T07:21:32.250Z,7.30
2022-09-15T07:24:03.826Z,6.60
2022-09-15T07:26:35.405Z,5.80
2022-09-15T07:29:06.023Z,6.00
2022-09-15T07:31:36.736Z,6.30
2022-09-15T07:34:05.285Z,10.80
2022-09-15T07:36:33.630Z,11.00
2022-09-15T07:39:03.897Z,11.50
2022-09-15T07:41:33.196Z,11.50
2022-09-15T07:44:01.410Z,9.90
2022-09-15T07:46:32.235Z,10.10
2022-09-15T07:49:03.188Z,9.70
2022-09-15T07:51:31.774Z,9.50
2022-09-15T07:54:00.363Z,8.70
2022-09-15T07:56:28.374Z,9.40
2022-09-15T07:58:57.071Z,9.60
2022-09-15T08:01:25.217Z,11.70
2022-09-15T08:03:53.596Z,8.80
2022-09-15T08:06:24.322Z,6.50
2022-09-15T08:08:57.693Z,4.20
2022-09-15T08:11:29.071Z,3.10
2022-09-15T08:14:01.640Z,2.80
2022-09-15T08:16:30.001Z,2.60
2022-09-15T08:18:59.528Z,2.30
2022-09-15T08:21:28.434Z,2.30
2022-09-15T08:23:58.921Z,2.30
2022-09-15T08:26:28.390Z,2.40
2022-09-15T08:28:56.466Z,2.20
2022-09-15T08:31:25.210Z,2.00
2022-09-15T08:33:55.509Z,1.90
2022-09-15T08:36:28.036Z,2.00
2022-09-15T08:38:56.912Z,1.90
2022-09-15T08:41:29.792Z,1.80
2022-09-15T08:44:08.525Z,1.80
2022-09-15T08:47:10.362Z,2.20
2022-09-15T08:50:01.585Z,1.80
2022-09-15T08:52:39.446Z,1.70
2022-09-15T08:55:17.940Z,2.00
2022-09-15T08:57:45.979Z,1.90
2022-09-15T09:00:16.811Z,2.10
2022-09-15T09:03:03.791Z,1.80
2022-09-15T09:05:44.330Z,2.00
2022-09-15T09:08:34.057Z,1.80
2022-09-15T09:11:40.991Z,1.70
2022-09-15T09:14:29.063Z,1.60
2022-09-15T09:17:12.342Z,2.10
2022-09-15T09:19:49.301Z,1.70
2022-09-15T09:22:23.253Z,2.00
2022-09-15T09:24:58.033Z,2.10
2022-09-15T09:27:36.148Z,2.00
2022-09-15T09:30:17.740Z,2.00
2022-09-15T09:33:15.471Z,2.10
2022-09-15T09:35:47.041Z,1.70
2022-09-15T09:38:44.315Z,1.90
2022-09-15T09:41:17.127Z,1.90
2022-09-15T09:43:47.834Z,2.20
2022-09-15T09:46:20.483Z,1.90
2022-09-15T09:49:13.543Z,1.80
2022-09-15T09:51:53.080Z,1.70
2022-09-15T09:54:25.176Z,1.60
2022-09-15T09:56:54.644Z,1.60
2022-09-15T09:59:35.264Z,1.80
2022-09-15T10:02:12.098Z,1.60
2022-09-15T10:04:48.721Z,1.60
2022-09-15T10:07:21.598Z,1.70
2022-09-15T10:09:55.762Z,1.60
2022-09-15T10:12:38.758Z,1.40
2022-09-15T10:15:19.743Z,1.40
2022-09-15T10:17:49.589Z,1.70
2022-09-15T10:20:25.915Z,1.60
2022-09-15T10:23:24.726Z,1.70
2022-09-15T10:25:59.961Z,1.40
2022-09-15T10:28:29.005Z,1.70
2022-09-15T10:31:25.985Z,1.60
2022-09-15T10:33:54.251Z,1.60
2022-09-15T10:36:32.395Z,1.80
2022-09-15T10:39:28.510Z,1.70
2022-09-15T10:42:07.254Z,1.70
2022-09-15T10:44:52.618Z,1.70
2022-09-15T10:47:49.652Z,1.50
2022-09-15T10:50:25.987Z,1.80
2022-09-15T10:53:29.352Z,1.70
2022-09-15T10:56:12.952Z,1.60
2022-09-15T11:01:33.328Z,1.40
2022-09-15T11:04:26.174Z,1.60
2022-09-15T11:07:31.657Z,1.40
2022-09-15T11:10:21.064Z,1.50
2022-09-15T11:13:17.569Z,1.80
2022-09-15T11:15:48.222Z,1.80
2022-09-15T11:18:40.827Z,1.60
2022-09-15T11:21:36.495Z,1.60
2022-09-15T11:24:31.761Z,1.90
2022-09-15T11:27:19.032Z,1.80
2022-09-15T11:29:46.968Z,1.80
2022-09-15T11:32:25.120Z,1.90
2022-09-15T11:35:08.256Z,1.70
2022-09-15T11:37:43.869Z,1.50
2022-09-15T11:40:28.999Z,1.60
2022-09-15T11:43:03.920Z,1.80
2022-09-15T11:45:43.752Z,1.70
2022-09-15T11:48:21.878Z,1.80
2022-09-15T11:50:56.496Z,1.80
2022-09-15T11:53:38.544Z,1.80
2022-09-15T11:56:24.779Z,1.80
2022-09-15T11:59:27.680Z,1.80
2022-09-15T12:01:59.453Z,1.90
2022-09-15T12:04:33.428Z,2.00
2022-09-15T12:07:20.428Z,2.20
2022-09-15T12:09:50.004Z,2.10
2022-09-15T12:12:21.698Z,2.30
2022-09-15T12:14:53.179Z,2.00
2022-09-15T12:17:30.142Z,3.70
2022-09-15T12:20:14.539Z,2.50
2022-09-15T12:23:01.672Z,2.10
2022-09-15T12:25:41.536Z,1.50
2022-09-15T12:28:38.674Z,1.40
2022-09-15T12:31:14.629Z,1.50
2022-09-15T12:33:42.775Z,1.60
2022-09-15T12:36:46.326Z,1.40
2022-09-15T12:39:43.483Z,1.70
2022-09-15T12:42:26.742Z,1.60
2022-09-15T12:44:59.027Z,1.40
2022-09-15T12:47:29.874Z,1.50
2022-09-15T12:50:26.726Z,1.90
2022-09-15T12:53:04.070Z,1.60
2022-09-15T12:55:37.986Z,1.80
2022-09-15T12:58:15.767Z,1.50
2022-09-15T13:06:23.605Z,1.80
2022-09-15T13:09:02.211Z,1.70
2022-09-15T13:11:50.244Z,1.40
2022-09-15T13:14:28.101Z,1.50
2022-09-15T13:17:14.391Z,1.40
2022-09-15T13:19:57.770Z,1.30
2022-09-15T13:22:34.292Z,1.50
2022-09-15T13:25:05.158Z,2.10
2022-09-15T13:27:58.354Z,2.00
2022-09-15T13:31:02.735Z,1.60
2022-09-15T13:39:59.945Z,1.50
2022-09-15T13:42:57.843Z,1.40
2022-09-15T13:45:50.823Z,1.50
2022-09-15T13:48:33.418Z,1.60
2022-09-15T13:51:12.844Z,1.70
2022-09-15T13:53:45.356Z,1.70
2022-09-15T13:56:28.028Z,1.60
2022-09-15T13:59:10.552Z,1.70
2022-09-15T14:01:43.205Z,2.00
2022-09-15T14:04:22.502Z,2.10
2022-09-15T14:06:57.088Z,1.90
2022-09-15T14:09:31.940Z,1.90
2022-09-15T14:12:05.193Z,1.60
2022-09-15T14:14:47.189Z,1.80
2022-09-15T14:17:34.534Z,1.90
2022-09-15T14:20:04.792Z,1.50
2022-09-15T14:22:34.680Z,1.80
2022-09-15T14:25:09.337Z,1.60
2022-09-15T14:27:43.271Z,1.60
2022-09-15T14:30:29.441Z,1.70
2022-09-15T14:33:02.931Z,1.70
2022-09-15T14:35:37.937Z,1.70
2022-09-15T14:38:05.978Z,1.70
2022-09-15T14:40:39.480Z,1.80
2022-09-15T14:43:29.316Z,2.00
2022-09-15T14:46:13.901Z,1.70
2022-09-15T14:48:42.115Z,1.70
2022-09-15T14:51:33.233Z,1.70
2022-09-15T14:54:05.611Z,1.90
2022-09-15T14:56:37.924Z,2.20
2022-09-15T14:59:14.669Z,1.90
2022-09-15T15:02:02.933Z,2.00
2022-09-15T15:04:44.022Z,2.00
2022-09-15T15:07:12.819Z,2.00
2022-09-15T15:09:54.622Z,1.80
2022-09-15T15:12:27.157Z,2.10
2022-09-15T15:14:56.753Z,2.60
2022-09-15T15:17:55.041Z,1.90
2022-09-15T15:20:27.083Z,2.00
2022-09-15T15:23:17.020Z,2.20
2022-09-15T15:25:47.073Z,2.40
2022-09-15T15:28:36.008Z,2.20
2022-09-15T15:31:18.238Z,2.60
2022-09-15T15:33:53.207Z,2.20
2022-09-15T15:36:24.194Z,2.60
2022-09-15T15:39:22.001Z,2.80
2022-09-15T15:42:03.018Z,2.70
2022-09-15T15:44:31.854Z,2.60
2022-09-15T15:47:02.843Z,3.10
2022-09-15T15:49:32.766Z,3.00
2022-09-15T15:52:01.981Z,2.60
2022-09-15T15:54:33.783Z,2.70
2022-09-15T15:57:24.869Z,2.50
2022-09-15T15:59:59.049Z,2.40
2022-09-15T16:02:28.008Z,2.40
2022-09-15T16:04:56.174Z,3.10
2022-09-15T16:07:31.097Z,2.80
2022-09-15T16:10:01.629Z,3.00
2022-09-15T16:12:31.997Z,2.60
2022-09-15T16:15:10.613Z,2.80
2022-09-15T16:17:40.892Z,2.80
2022-09-15T16:20:13.181Z,2.70
2022-09-15T16:22:41.446Z,2.20
2022-09-15T16:25:16.084Z,2.70
2022-09-15T16:27:44.583Z,2.60
2022-09-15T16:30:12.626Z,2.60
2022-09-15T16:32:43.312Z,3.10
2022-09-15T16:35:28.112Z,2.90
2022-09-15T16:37:56.231Z,3.00
2022-09-15T16:40:24.518Z,2.90
2022-09-15T16:42:52.834Z,2.50
2022-09-15T16:45:38.145Z,3.10
2022-09-15T16:48:13.024Z,3.10
2022-09-15T16:50:50.493Z,3.10
2022-09-15T16:53:26.810Z,2.90
2022-09-15T16:55:57.587Z,2.70
2022-09-15T16:58:25.806Z,2.80
2022-09-15T17:00:54.117Z,2.80
2022-09-15T17:03:24.711Z,2.60
2022-09-15T17:05:59.570Z,3.10
2022-09-15T17:08:30.612Z,3.20
2022-09-15T17:11:01.785Z,3.10
2022-09-15T17:13:33.447Z,3.20
2022-09-15T17:16:02.640Z,3.10
2022-09-15T17:18:30.931Z,3.30
2022-09-15T17:20:59.691Z,3.60
2022-09-15T17:23:35.050Z,3.30
2022-09-15T17:26:06.528Z,3.40
2022-09-15T17:28:36.670Z,3.50
2022-09-15T17:31:12.350Z,2.70
2022-09-15T17:33:41.140Z,2.80
2022-09-15T17:36:09.220Z,3.10
2022-09-15T17:38:37.270Z,3.50
2022-09-15T17:41:05.590Z,3.50
2022-09-15T17:43:33.632Z,3.80
2022-09-15T17:46:01.747Z,3.70
2022-09-15T17:48:29.810Z,3.80
2022-09-15T17:50:58.525Z,3.60
2022-09-15T17:53:30.829Z,3.70
2022-09-15T17:55:59.011Z,3.00
2022-09-15T17:58:29.988Z,3.60
2022-09-15T18:00:58.668Z,3.70
2022-09-15T18:03:36.070Z,4.10
2022-09-15T18:06:07.105Z,3.70
2022-09-15T18:08:36.216Z,4.30
2022-09-15T18:11:06.364Z,4.10
2022-09-15T18:13:34.974Z,3.80
2022-09-15T18:16:05.363Z,4.30
2022-09-15T18:18:34.339Z,4.00
2022-09-15T18:21:09.828Z,3.70
2022-09-15T18:23:39.322Z,4.10
2022-09-15T18:26:07.519Z,3.80
2022-09-15T18:28:35.711Z,3.20
2022-09-15T18:31:03.871Z,3.50
2022-09-15T18:33:32.101Z,3.50
2022-09-15T18:36:00.200Z,3.70
2022-09-15T18:38:28.187Z,3.40
2022-09-15T18:40:57.759Z,3.70
2022-09-15T18:43:28.467Z,3.80
2022-09-15T18:46:00.654Z,3.00
2022-09-15T18:48:30.943Z,2.90
2022-09-15T18:50:58.983Z,2.80
2022-09-15T18:53:27.252Z,2.80
2022-09-15T18:55:55.329Z,2.60
2022-09-15T18:58:24.304Z,3.20
2022-09-15T19:00:52.227Z,3.70
2022-09-15T19:03:20.193Z,4.00
2022-09-15T19:05:48.650Z,3.90
2022-09-15T19:08:17.241Z,4.00
2022-09-15T19:10:45.319Z,4.60
2022-09-15T19:13:14.345Z,5.80
2022-09-15T19:15:44.271Z,5.60
2022-09-15T19:18:12.930Z,5.30
2022-09-15T19:20:40.976Z,5.80
2022-09-15T19:23:09.750Z,5.20
2022-09-15T19:25:38.130Z,5.90
2022-09-15T19:28:06.090Z,5.90
2022-09-15T19:30:35.081Z,5.80
2022-09-15T19:33:05.740Z,5.90
2022-09-15T19:35:33.984Z,5.80
2022-09-15T19:38:02.047Z,5.70
2022-09-15T19:40:30.303Z,5.70
2022-09-15T19:42:58.261Z,5.90
2022-09-15T19:45:26.913Z,5.50
2022-09-15T19:47:55.020Z,5.50
2022-09-15T19:50:23.433Z,5.50
2022-09-15T19:52:52.699Z,5.90
2022-09-15T19:55:23.294Z,5.60
2022-09-15T19:57:51.380Z,5.40
2022-09-15T20:00:19.350Z,5.30
2022-09-15T20:02:48.802Z,5.50
2022-09-15T20:05:16.816Z,5.80
2022-09-15T20:07:47.237Z,4.90
2022-09-15T20:10:16.371Z,5.50
2022-09-15T20:12:44.843Z,5.20
2022-09-15T20:15:12.952Z,4.40
2022-09-15T20:17:42.542Z,4.90
2022-09-15T20:20:11.967Z,4.70
2022-09-15T20:22:40.943Z,4.30
2022-09-15T20:25:09.028Z,4.60
2022-09-15T20:27:37.599Z,4.60
2022-09-15T20:30:06.923Z,4.60
2022-09-15T20:32:35.123Z,4.30
2022-09-15T20:35:03.576Z,4.10
2022-09-15T20:37:36.653Z,4.00
2022-09-15T20:40:08.640Z,4.50
2022-09-15T20:42:37.209Z,4.30
2022-09-15T20:45:06.724Z,4.20
2022-09-15T20:47:34.753Z,4.20
2022-09-15T20:50:06.905Z,4.70
2022-09-15T20:52:38.434Z,4.60
2022-09-15T20:55:07.027Z,4.60
2022-09-15T20:57:37.255Z,4.60
